Česky Dansk Deutsch English Español Suomi Français Magyar Italiano Nederlands norsk Polski Português svenska Türkçe

 

Het Weer

Quintero Santiago (Chili)

15:00, 30 maart 2011 (GMT)

NWNNE
WE
SWSSE
Home            
Quintero Santiago Pudahuel Uspallata Curico San Carlos Mendoza Aerodrome San Juan Aerodrome San Martin La Serena Malargue Aerodrome San Rafael Aerodrome Jachal Chillan Concepcion Vallenar San Luis Aerodrome Chepes Chilecito Gobernador Gordillo Villa Reynolds Aerodrome La Rioja Aero. Villa Dolores Aerodrome Copiapo

Om een weerknop op uw website of weblog te plaatsen, copieer onderstaande code en plak die in uw pagina. In het eerste vakje staat HTML-code, in het tweede vakje UBB-code.


Add to Google

Details

Wind speed:3 bf, 9 kn, 4.6 m/s, 10.4 miles/h, 16.7 km/h
Wind direction:S, 190° - WSW, 250°
Visibility:Greater than 10000 m, 10 km, 32800 ft, 6.2 miles
Clouds:CAVOC
Temperature:24°C, 75°F
Gefühlte Temperatur:26°C, 78°F
Dew-point:14°C, 57°F
Atmospheric pressure:1013 hPa, 759.8 mmHg, 29.91 inHg, 1.000 atm
Relative humidity:53.6 %
METAR:SCER 301500Z 22009KT 190V250 CAVOK 24/14 Q1013

Snelkoppelingen

Actuele weersinformatie van de hele wereld. Voeg locaties toe met het plus (+) symbool. Deze snelkoppelingen kunnen worden toegevoegd aan Google.

Lid van de Technetium groep

website free tracking
StatCounter NetStat W3C Validator

25-03-2023 08:03:34
astro.technetium.be money.technetium.be phote.technetium.be tafeltennistafel.technetium.be www.ligfiets.net